createdAt,value
2022-10-09T00:00:20.232Z,54.76
2022-10-09T00:03:12.444Z,54.70
2022-10-09T00:05:45.108Z,54.76
2022-10-09T00:08:17.300Z,54.75
2022-10-09T00:10:49.903Z,54.84
2022-10-09T00:13:22.455Z,54.91
2022-10-09T00:15:54.653Z,55.01
2022-10-09T00:18:26.830Z,55.13
2022-10-09T00:20:59.415Z,55.22
2022-10-09T00:23:32.579Z,55.27
2022-10-09T00:26:05.155Z,55.21
2022-10-09T00:28:38.860Z,55.32
2022-10-09T00:31:13.063Z,55.35
2022-10-09T00:33:45.638Z,55.38
2022-10-09T00:36:20.071Z,55.32
2022-10-09T00:38:53.103Z,55.43
2022-10-09T00:41:28.674Z,55.47
2022-10-09T00:44:03.327Z,55.63
2022-10-09T00:46:46.474Z,55.56
2022-10-09T00:49:26.464Z,55.56
2022-10-09T00:52:05.400Z,55.61
2022-10-09T00:54:41.864Z,55.59
2022-10-09T00:57:14.506Z,55.70
2022-10-09T00:59:47.133Z,55.58
2022-10-09T01:02:19.370Z,55.60
2022-10-09T01:04:51.588Z,55.77
2022-10-09T01:07:36.733Z,55.79
2022-10-09T01:10:18.754Z,55.93
2022-10-09T01:12:56.448Z,55.92
2022-10-09T01:15:32.827Z,56.01
2022-10-09T01:18:13.155Z,55.99
2022-10-09T01:20:51.085Z,56.05
2022-10-09T01:23:50.384Z,56.13
2022-10-09T01:26:36.172Z,56.06
2022-10-09T01:29:11.944Z,56.17
2022-10-09T01:31:43.759Z,56.22
2022-10-09T01:34:18.896Z,56.23
2022-10-09T01:36:52.819Z,56.28
2022-10-09T01:39:26.725Z,56.32
2022-10-09T01:41:59.485Z,56.35
2022-10-09T01:44:33.754Z,56.40
2022-10-09T01:47:06.595Z,56.44
2022-10-09T01:49:48.704Z,56.38
2022-10-09T01:52:41.493Z,56.41
2022-10-09T01:55:35.620Z,56.46
2022-10-09T01:58:16.819Z,56.34
2022-10-09T02:00:53.748Z,56.39
2022-10-09T02:03:28.632Z,56.47
2022-10-09T02:06:02.357Z,56.37
2022-10-09T02:08:36.208Z,56.58
2022-10-09T02:11:10.990Z,56.62
2022-10-09T02:13:45.044Z,56.59
2022-10-09T02:16:22.662Z,56.67
2022-10-09T02:18:59.784Z,56.62
2022-10-09T02:21:39.250Z,56.73
2022-10-09T02:24:15.817Z,56.86
2022-10-09T02:26:48.502Z,56.86
2022-10-09T02:29:21.343Z,56.86
2022-10-09T02:31:53.875Z,56.91
2022-10-09T02:34:26.403Z,56.96
2022-10-09T02:36:58.544Z,57.08
2022-10-09T02:39:30.794Z,57.14
2022-10-09T02:42:03.026Z,57.23
2022-10-09T02:44:35.354Z,57.20
2022-10-09T02:47:07.597Z,57.26
2022-10-09T02:49:39.955Z,57.24
2022-10-09T02:52:12.356Z,57.21
2022-10-09T02:54:44.545Z,57.31
2022-10-09T02:57:16.810Z,57.29
2022-10-09T02:59:49.058Z,57.23
2022-10-09T03:02:21.588Z,57.24
2022-10-09T03:04:54.048Z,57.27
2022-10-09T03:07:26.393Z,57.27
2022-10-09T03:09:58.995Z,57.32
2022-10-09T03:12:31.220Z,57.18
2022-10-09T03:15:03.419Z,57.33
2022-10-09T03:17:35.590Z,57.26
2022-10-09T03:20:09.137Z,57.30
2022-10-09T03:22:41.355Z,57.31
2022-10-09T03:25:13.733Z,57.31
2022-10-09T03:27:46.199Z,57.49
2022-10-09T03:30:18.639Z,57.48
2022-10-09T03:32:51.119Z,57.48
2022-10-09T03:35:23.734Z,57.59
2022-10-09T03:37:55.981Z,57.42
2022-10-09T03:40:28.198Z,57.60
2022-10-09T03:43:00.438Z,57.56
2022-10-09T03:45:32.753Z,57.60
2022-10-09T03:48:04.964Z,57.48
2022-10-09T03:50:38.369Z,57.65
2022-10-09T03:53:12.217Z,57.60
2022-10-09T03:55:44.891Z,57.62
2022-10-09T03:58:17.161Z,57.88
2022-10-09T04:00:50.789Z,57.77
2022-10-09T04:03:23.458Z,57.79
2022-10-09T04:05:55.664Z,57.88
2022-10-09T04:08:28.335Z,57.90
2022-10-09T04:11:01.666Z,57.79
2022-10-09T04:13:33.931Z,57.87
2022-10-09T04:16:06.800Z,57.93
2022-10-09T04:18:39.573Z,58.10
2022-10-09T04:21:13.238Z,58.04
2022-10-09T04:23:45.420Z,58.16
2022-10-09T04:26:17.687Z,58.00
2022-10-09T04:28:49.970Z,58.12
2022-10-09T04:31:22.242Z,58.07
2022-10-09T04:33:57.561Z,58.32
2022-10-09T04:36:29.721Z,58.27
2022-10-09T04:39:01.975Z,58.20
2022-10-09T04:41:38.109Z,58.28
2022-10-09T04:44:10.824Z,58.44
2022-10-09T04:46:43.466Z,58.46
2022-10-09T04:49:16.428Z,58.44
2022-10-09T04:51:48.611Z,58.45
2022-10-09T04:54:20.908Z,58.56
2022-10-09T04:56:53.124Z,58.49
2022-10-09T04:59:25.333Z,58.70
2022-10-09T05:01:57.600Z,58.68
2022-10-09T05:04:30.072Z,58.77
2022-10-09T05:07:02.364Z,58.83
2022-10-09T05:09:34.826Z,58.73
2022-10-09T05:12:07.353Z,58.80
2022-10-09T05:14:39.660Z,59.01
2022-10-09T05:17:14.629Z,58.71
2022-10-09T05:19:47.396Z,58.98
2022-10-09T05:22:19.621Z,58.96
2022-10-09T05:24:51.847Z,58.95
2022-10-09T05:27:24.035Z,58.79
2022-10-09T05:29:56.268Z,58.65
2022-10-09T05:32:28.429Z,58.85
2022-10-09T05:35:00.605Z,58.83
2022-10-09T05:37:32.808Z,58.73
2022-10-09T05:40:05.188Z,58.77
2022-10-09T05:42:37.460Z,58.87
2022-10-09T05:45:11.762Z,58.79
2022-10-09T05:47:43.936Z,58.58
2022-10-09T05:50:16.173Z,58.62
2022-10-09T05:52:48.651Z,58.64
2022-10-09T05:55:21.156Z,58.49
2022-10-09T05:57:53.954Z,58.51
2022-10-09T06:00:26.276Z,58.46
2022-10-09T06:02:58.540Z,58.51
2022-10-09T06:05:30.746Z,58.32
2022-10-09T06:08:02.940Z,58.38
2022-10-09T06:10:35.207Z,58.30
2022-10-09T06:13:07.412Z,58.20
2022-10-09T06:15:39.585Z,57.97
2022-10-09T06:18:11.743Z,57.56
2022-10-09T06:20:54.067Z,57.17
2022-10-09T06:23:26.528Z,57.02
2022-10-09T06:26:00.678Z,56.66
2022-10-09T06:28:35.076Z,56.59
2022-10-09T06:31:09.608Z,56.79
2022-10-09T06:33:43.483Z,56.62
2022-10-09T06:36:17.823Z,56.53
2022-10-09T06:38:50.371Z,56.13
2022-10-09T06:41:24.357Z,55.72
2022-10-09T06:43:58.862Z,55.43
2022-10-09T06:46:32.952Z,55.33
2022-10-09T06:49:06.021Z,55.01
2022-10-09T06:51:38.664Z,54.55
2022-10-09T06:54:14.516Z,54.49
2022-10-09T06:56:47.385Z,53.91
2022-10-09T06:59:19.723Z,53.64
2022-10-09T07:01:51.971Z,53.24
2022-10-09T07:04:24.188Z,52.73
2022-10-09T07:06:56.763Z,52.20
2022-10-09T07:09:31.261Z,51.76
2022-10-09T07:12:03.412Z,51.52
2022-10-09T07:14:35.593Z,51.34
2022-10-09T07:17:07.777Z,51.41
2022-10-09T07:19:40.024Z,51.36
2022-10-09T07:22:12.211Z,51.18
2022-10-09T07:24:44.449Z,50.89
2022-10-09T07:27:16.584Z,50.68
2022-10-09T07:29:48.854Z,50.40
2022-10-09T07:32:21.104Z,50.00
2022-10-09T07:34:53.341Z,49.62
2022-10-09T07:37:25.533Z,49.38
2022-10-09T07:39:57.690Z,49.17
2022-10-09T07:42:29.927Z,48.63
2022-10-09T07:45:02.162Z,48.32
2022-10-09T07:47:34.455Z,48.03
2022-10-09T07:50:07.776Z,47.34
2022-10-09T07:52:39.952Z,47.56
2022-10-09T07:55:12.484Z,47.15
2022-10-09T07:57:44.864Z,47.09
2022-10-09T08:00:17.834Z,46.74
2022-10-09T08:02:50.318Z,46.33
2022-10-09T08:05:22.719Z,45.83
2022-10-09T08:07:54.908Z,45.80
2022-10-09T08:10:27.232Z,45.48
2022-10-09T08:12:59.671Z,45.36
2022-10-09T08:15:32.226Z,44.91
2022-10-09T08:18:04.440Z,44.84
2022-10-09T08:20:36.615Z,44.97
2022-10-09T08:23:09.177Z,43.97
2022-10-09T08:25:41.568Z,44.42
2022-10-09T08:28:13.858Z,44.51
2022-10-09T08:30:46.135Z,44.14
2022-10-09T08:33:21.999Z,43.63
2022-10-09T08:35:55.176Z,43.62
2022-10-09T08:38:46.225Z,43.60
2022-10-09T08:41:30.982Z,43.05
2022-10-09T08:44:07.701Z,42.79
2022-10-09T08:46:51.319Z,42.67
2022-10-09T08:49:29.790Z,42.43
2022-10-09T08:52:08.275Z,42.25
2022-10-09T08:54:42.533Z,42.27
2022-10-09T08:57:16.978Z,42.35
2022-10-09T08:59:49.347Z,42.37
2022-10-09T09:02:34.918Z,41.95
2022-10-09T09:05:29.328Z,41.98
2022-10-09T09:08:08.507Z,41.60
2022-10-09T09:10:48.277Z,41.50
2022-10-09T09:13:41.109Z,41.31
2022-10-09T09:16:20.545Z,41.07
2022-10-09T09:19:05.977Z,41.40
2022-10-09T09:21:48.784Z,40.85
2022-10-09T09:24:26.077Z,40.49
2022-10-09T09:27:04.349Z,40.67
2022-10-09T09:29:44.485Z,40.48
2022-10-09T09:32:22.650Z,40.28
2022-10-09T09:35:02.639Z,40.36
2022-10-09T09:37:34.920Z,40.17
2022-10-09T09:43:17.457Z,39.74
2022-10-09T09:45:53.427Z,39.42
2022-10-09T09:48:34.800Z,39.59
2022-10-09T09:51:28.081Z,39.54
2022-10-09T09:54:05.060Z,39.46
2022-10-09T09:57:10.220Z,39.00
2022-10-09T09:59:37.941Z,39.02
2022-10-09T10:02:18.358Z,38.80
2022-10-09T10:04:56.705Z,38.95
2022-10-09T10:07:34.512Z,38.90
2022-10-09T10:10:17.153Z,38.86
2022-10-09T10:12:58.396Z,38.50
2022-10-09T10:15:32.608Z,38.28
2022-10-09T10:18:07.433Z,38.18
2022-10-09T10:20:48.733Z,38.25
2022-10-09T10:23:35.691Z,37.97
2022-10-09T10:26:15.985Z,37.86
2022-10-09T10:28:55.209Z,37.89
2022-10-09T10:31:42.636Z,37.79
2022-10-09T10:34:21.435Z,38.03
2022-10-09T10:37:02.565Z,37.93
2022-10-09T10:39:42.813Z,37.64
2022-10-09T10:42:20.816Z,37.56
2022-10-09T10:44:59.594Z,37.62
2022-10-09T10:47:36.622Z,37.34
2022-10-09T10:50:15.952Z,37.09
2022-10-09T10:53:00.460Z,37.08
2022-10-09T10:55:43.791Z,37.02
2022-10-09T10:58:25.901Z,36.80
2022-10-09T11:01:13.614Z,36.67
2022-10-09T11:04:04.837Z,36.55
2022-10-09T11:06:46.587Z,36.46
2022-10-09T11:09:28.885Z,36.68
2022-10-09T11:12:19.580Z,36.42
2022-10-09T11:15:06.307Z,36.11
2022-10-09T11:17:48.281Z,36.13
2022-10-09T11:20:45.727Z,36.24
2022-10-09T11:23:26.930Z,36.07
2022-10-09T11:26:07.483Z,35.83
2022-10-09T11:28:45.055Z,35.83
2022-10-09T11:31:21.408Z,36.04
2022-10-09T11:34:00.160Z,35.85
2022-10-09T11:36:39.969Z,35.83
2022-10-09T11:39:18.375Z,35.95
2022-10-09T11:41:52.951Z,35.66
2022-10-09T11:44:39.813Z,35.58
2022-10-09T11:47:22.932Z,35.55
2022-10-09T11:50:07.867Z,35.82
2022-10-09T11:52:49.009Z,36.10
2022-10-09T11:55:24.057Z,35.86
2022-10-09T11:57:56.759Z,35.86
2022-10-09T12:00:39.356Z,35.72
2022-10-09T12:03:33.746Z,35.87
2022-10-09T12:06:13.395Z,35.83
2022-10-09T12:08:56.327Z,35.71
2022-10-09T12:11:29.914Z,35.67
2022-10-09T12:14:03.957Z,35.68
2022-10-09T12:16:43.067Z,35.75
2022-10-09T12:19:23.936Z,36.06
2022-10-09T12:22:04.278Z,35.80
2022-10-09T12:24:42.492Z,35.71
2022-10-09T12:27:22.240Z,35.85
2022-10-09T12:29:57.936Z,35.67
2022-10-09T12:32:33.631Z,36.01
2022-10-09T12:35:19.632Z,35.75
2022-10-09T12:37:51.835Z,35.63
2022-10-09T12:40:27.571Z,35.76
2022-10-09T12:43:01.879Z,35.54
2022-10-09T12:45:34.521Z,35.73
2022-10-09T12:48:15.024Z,35.84
2022-10-09T12:50:47.192Z,35.94
2022-10-09T12:53:22.626Z,35.71
2022-10-09T12:55:55.390Z,35.95
2022-10-09T12:58:31.385Z,36.12
2022-10-09T13:01:07.849Z,35.99
2022-10-09T13:03:41.948Z,35.86
2022-10-09T13:06:19.556Z,35.96
2022-10-09T13:08:58.974Z,35.70
2022-10-09T13:11:38.126Z,35.86
2022-10-09T13:14:24.478Z,35.95
2022-10-09T13:16:56.971Z,35.82
2022-10-09T13:19:30.804Z,35.85
2022-10-09T13:22:17.363Z,35.89
2022-10-09T13:24:51.627Z,36.02
2022-10-09T13:27:25.512Z,35.97
2022-10-09T13:29:57.770Z,35.96
2022-10-09T13:32:30.026Z,35.94
2022-10-09T13:35:02.259Z,35.89
2022-10-09T13:37:34.611Z,35.92
2022-10-09T13:40:08.816Z,36.02
2022-10-09T13:42:41.129Z,36.28
2022-10-09T13:45:14.526Z,36.16
2022-10-09T13:47:47.068Z,36.25
2022-10-09T13:50:19.862Z,36.13
2022-10-09T13:52:52.141Z,36.01
2022-10-09T13:55:24.469Z,35.80
2022-10-09T13:57:56.627Z,36.01
2022-10-09T14:00:29.545Z,35.93
2022-10-09T14:03:01.727Z,36.20
2022-10-09T14:05:33.878Z,35.79
2022-10-09T14:08:06.849Z,35.92
2022-10-09T14:10:42.121Z,36.03
2022-10-09T14:13:14.666Z,36.01
2022-10-09T14:15:46.854Z,35.96
2022-10-09T14:18:19.101Z,35.98
2022-10-09T14:20:52.126Z,35.94
2022-10-09T14:23:24.299Z,35.87
2022-10-09T14:25:56.491Z,35.98
2022-10-09T14:28:28.791Z,36.22
2022-10-09T14:31:01.156Z,36.39
2022-10-09T14:33:33.491Z,36.46
2022-10-09T14:36:10.526Z,36.65
2022-10-09T14:38:44.002Z,36.65
2022-10-09T14:41:18.087Z,36.85
2022-10-09T14:43:56.885Z,36.88
2022-10-09T14:46:33.876Z,36.80
2022-10-09T14:49:08.407Z,36.97
2022-10-09T14:51:42.101Z,37.13
2022-10-09T14:54:15.274Z,37.22
2022-10-09T14:56:47.619Z,37.31
2022-10-09T14:59:19.901Z,37.42
2022-10-09T15:01:52.031Z,37.40
2022-10-09T15:04:24.262Z,37.55
2022-10-09T15:06:56.428Z,37.61
2022-10-09T15:09:28.785Z,37.75
2022-10-09T15:12:00.960Z,37.86
2022-10-09T15:14:33.277Z,37.78
2022-10-09T15:17:05.475Z,37.95
2022-10-09T15:19:37.875Z,38.05
2022-10-09T15:22:10.230Z,38.22
2022-10-09T15:24:42.744Z,38.36
2022-10-09T15:27:15.005Z,38.49
2022-10-09T15:29:47.260Z,38.56
2022-10-09T15:32:19.530Z,38.36
2022-10-09T15:34:51.939Z,38.60
2022-10-09T15:37:24.225Z,38.88
2022-10-09T15:39:56.566Z,38.99
2022-10-09T15:42:28.771Z,39.18
2022-10-09T15:45:00.963Z,39.28
2022-10-09T15:47:50.376Z,39.44
2022-10-09T15:50:23.393Z,39.39
2022-10-09T15:52:57.072Z,39.63
2022-10-09T15:55:29.525Z,39.69
2022-10-09T15:58:01.804Z,39.67
2022-10-09T16:00:37.247Z,39.86
2022-10-09T16:03:11.085Z,40.11
2022-10-09T16:05:45.050Z,40.21
2022-10-09T16:08:19.041Z,40.32
2022-10-09T16:10:52.278Z,40.43
2022-10-09T16:13:25.470Z,40.43
2022-10-09T16:15:58.541Z,40.33
2022-10-09T16:18:30.727Z,40.49
2022-10-09T16:21:08.703Z,40.53
2022-10-09T16:23:40.932Z,40.39
2022-10-09T16:26:15.127Z,40.29
2022-10-09T16:28:47.839Z,40.57
2022-10-09T16:31:25.034Z,40.45
2022-10-09T16:33:57.915Z,40.52
2022-10-09T16:36:30.392Z,40.44
2022-10-09T16:39:03.136Z,40.50
2022-10-09T16:41:39.552Z,40.48
2022-10-09T16:44:17.180Z,40.59
2022-10-09T16:46:49.481Z,40.88
2022-10-09T16:49:24.291Z,41.00
2022-10-09T16:51:57.444Z,40.98
2022-10-09T16:54:29.636Z,40.96
2022-10-09T16:57:04.757Z,40.77
2022-10-09T16:59:37.371Z,40.90
2022-10-09T17:02:11.743Z,40.97
2022-10-09T17:04:44.469Z,40.95
2022-10-09T17:07:16.769Z,41.07
2022-10-09T17:09:49.049Z,41.05
2022-10-09T17:12:22.957Z,41.12
2022-10-09T17:14:57.479Z,41.18
2022-10-09T17:17:29.744Z,41.17
2022-10-09T17:20:01.954Z,41.09
2022-10-09T17:22:34.161Z,41.24
2022-10-09T17:25:07.242Z,41.23
2022-10-09T17:27:39.502Z,41.22
2022-10-09T17:30:13.927Z,41.31
2022-10-09T17:32:46.211Z,41.28
2022-10-09T17:35:18.667Z,41.49
2022-10-09T17:37:50.846Z,41.42
2022-10-09T17:40:24.861Z,41.38
2022-10-09T17:43:00.040Z,41.50
2022-10-09T17:45:35.828Z,41.51
2022-10-09T17:48:11.545Z,41.59
2022-10-09T17:50:50.986Z,41.43
2022-10-09T17:53:23.632Z,41.58
2022-10-09T17:55:58.339Z,41.45
2022-10-09T17:58:30.587Z,41.71
2022-10-09T18:01:08.226Z,41.60
2022-10-09T18:03:40.494Z,41.81
2022-10-09T18:06:17.288Z,41.65
2022-10-09T18:08:49.664Z,41.74
2022-10-09T18:11:23.216Z,41.71
2022-10-09T18:13:55.935Z,41.77
2022-10-09T18:16:35.923Z,41.75
2022-10-09T18:19:13.225Z,41.79
2022-10-09T18:21:48.189Z,41.74
2022-10-09T18:24:20.792Z,41.88
2022-10-09T18:26:53.003Z,41.84
2022-10-09T18:29:25.431Z,41.82
2022-10-09T18:31:58.065Z,41.91
2022-10-09T18:34:30.268Z,42.01
2022-10-09T18:37:02.520Z,42.03
2022-10-09T18:39:34.684Z,42.01
2022-10-09T18:42:07.518Z,42.05
2022-10-09T18:44:41.878Z,41.97
2022-10-09T18:47:18.340Z,42.10
2022-10-09T18:49:53.839Z,42.09
2022-10-09T18:52:26.416Z,42.23
2022-10-09T18:54:59.906Z,42.14
2022-10-09T18:57:33.535Z,42.43
2022-10-09T19:00:06.471Z,42.57
2022-10-09T19:05:12.359Z,42.75
2022-10-09T19:07:44.608Z,43.01
2022-10-09T19:10:16.880Z,43.14
2022-10-09T19:12:50.328Z,43.30
2022-10-09T19:15:22.872Z,43.23
2022-10-09T19:17:55.144Z,43.46
2022-10-09T19:20:29.194Z,43.43
2022-10-09T19:23:01.391Z,43.78
2022-10-09T19:25:33.585Z,44.04
2022-10-09T19:28:05.789Z,44.04
2022-10-09T19:30:40.097Z,44.13
2022-10-09T19:33:12.641Z,44.23
2022-10-09T19:35:53.033Z,44.31
2022-10-09T19:38:26.932Z,44.56
2022-10-09T19:41:03.812Z,44.61
2022-10-09T19:43:36.343Z,44.78
2022-10-09T19:46:10.179Z,44.74
2022-10-09T19:48:42.350Z,45.03
2022-10-09T19:51:16.670Z,45.05
2022-10-09T19:53:50.099Z,45.25
2022-10-09T19:56:26.263Z,45.44
2022-10-09T19:58:59.524Z,45.34
2022-10-09T20:01:32.912Z,45.79
2022-10-09T20:04:08.893Z,45.50
2022-10-09T20:06:40.049Z,45.49
2022-10-09T20:09:13.655Z,45.77
2022-10-09T20:11:46.066Z,45.80
2022-10-09T20:14:18.381Z,45.72
2022-10-09T20:16:50.535Z,45.77
2022-10-09T20:19:23.252Z,45.95
2022-10-09T20:21:55.415Z,46.26
2022-10-09T20:24:27.679Z,46.19
2022-10-09T20:27:00.132Z,46.15
2022-10-09T20:29:32.399Z,46.29
2022-10-09T20:32:04.621Z,46.38
2022-10-09T20:34:36.805Z,46.23
2022-10-09T20:37:08.912Z,46.34
2022-10-09T20:39:41.124Z,46.38
2022-10-09T20:42:13.268Z,46.65
2022-10-09T20:44:45.537Z,46.52
2022-10-09T20:47:17.819Z,46.48
2022-10-09T20:49:50.994Z,46.53
2022-10-09T20:52:23.154Z,46.58
2022-10-09T20:54:55.403Z,46.56
2022-10-09T20:57:27.713Z,46.64
2022-10-09T21:00:00.118Z,46.56
2022-10-09T21:02:32.523Z,46.53
2022-10-09T21:05:04.774Z,46.69
2022-10-09T21:07:36.955Z,46.53
2022-10-09T21:10:10.980Z,46.59
2022-10-09T21:12:43.383Z,46.43
2022-10-09T21:15:15.543Z,46.64
2022-10-09T21:17:47.713Z,46.68
2022-10-09T21:20:20.118Z,46.63
2022-10-09T21:22:52.652Z,46.62
2022-10-09T21:25:25.096Z,46.71
2022-10-09T21:27:57.283Z,46.83
2022-10-09T21:30:30.780Z,46.80
2022-10-09T21:33:03.007Z,46.83
2022-10-09T21:35:39.303Z,46.95
2022-10-09T21:38:14.355Z,46.90
2022-10-09T21:40:47.334Z,47.20
2022-10-09T21:43:20.007Z,46.91
2022-10-09T21:45:53.219Z,47.00
2022-10-09T21:48:25.653Z,47.08
2022-10-09T21:50:58.264Z,47.14
2022-10-09T21:53:30.744Z,47.23
2022-10-09T21:56:05.669Z,47.15
2022-10-09T21:58:38.336Z,47.30
2022-10-09T22:01:10.904Z,47.35
2022-10-09T22:03:43.677Z,47.35
2022-10-09T22:06:19.090Z,47.41
2022-10-09T22:08:51.726Z,47.35
2022-10-09T22:11:23.917Z,47.56
2022-10-09T22:13:57.859Z,47.59
2022-10-09T22:16:30.227Z,47.60
2022-10-09T22:19:03.114Z,47.70
2022-10-09T22:21:35.321Z,47.64
2022-10-09T22:24:07.705Z,47.75
2022-10-09T22:26:39.821Z,47.81
2022-10-09T22:29:11.942Z,47.77
2022-10-09T22:31:44.096Z,47.86
2022-10-09T22:34:16.534Z,47.93
2022-10-09T22:36:48.957Z,47.87
2022-10-09T22:39:21.144Z,47.99
2022-10-09T22:41:53.445Z,47.96
2022-10-09T22:44:25.586Z,47.97
2022-10-09T22:46:57.793Z,47.86
2022-10-09T22:49:29.883Z,47.89
2022-10-09T22:52:02.147Z,47.98
2022-10-09T22:54:34.327Z,47.94
2022-10-09T22:57:06.491Z,48.02
2022-10-09T22:59:38.647Z,48.06
2022-10-09T23:02:10.796Z,48.09
2022-10-09T23:04:42.957Z,48.02
2022-10-09T23:07:15.122Z,47.96
2022-10-09T23:09:47.296Z,48.11
2022-10-09T23:12:19.491Z,48.13
2022-10-09T23:14:51.984Z,48.03
2022-10-09T23:17:24.156Z,47.94
2022-10-09T23:19:56.322Z,48.09
2022-10-09T23:22:28.447Z,48.06
2022-10-09T23:25:00.787Z,48.02
2022-10-09T23:27:33.025Z,48.01
2022-10-09T23:30:05.491Z,47.92
2022-10-09T23:32:37.671Z,48.00
2022-10-09T23:35:10.959Z,47.91
2022-10-09T23:37:43.120Z,47.94
2022-10-09T23:40:15.391Z,47.97
2022-10-09T23:42:47.982Z,47.85
2022-10-09T23:45:20.367Z,47.96
2022-10-09T23:47:52.593Z,47.97
2022-10-09T23:50:24.741Z,47.89
2022-10-09T23:52:56.892Z,47.84
2022-10-09T23:55:29.111Z,47.88
2022-10-09T23:58:01.403Z,47.86
